Time;durP1;ratioP1;P1;durP2;ratioP2;P2;SDS_P1;SDS_P2;PMS_P1;PMS_P2;Temp;Humidity;BMP_temperature;BMP_pressure;BME280_temperature;BME280_humidity;BME280_pressure;Samples;Min_cycle;Max_cycle;Signal;HPM_P1;HPM_P2
2022/04/14 00:01:39;;;;;;;2.50;1.60;;;;;;;;;;5133139;27;20447;-71
2022/04/14 00:04:07;;;;;;;2.83;1.90;;;;;;;;;;5126322;27;20749;-72
2022/04/14 00:06:35;;;;;;;3.47;1.67;;;;;;;;;;5130779;27;20448;-71
2022/04/14 00:09:02;;;;;;;2.37;2.17;;;;;;;;;;5127230;27;20817;-71
2022/04/14 00:11:30;;;;;;;2.27;1.53;;;;;;;;;;5114813;27;20447;-71
2022/04/14 00:13:57;;;;;;;3.53;1.40;;;;;;;;;;5130574;27;20530;-71
2022/04/14 00:16:24;;;;;;;1.50;1.40;;;;;;;;;;5125750;27;20565;-72
2022/04/14 00:18:51;;;;;;;2.47;1.77;;;;;;;;;;5132769;27;20530;-70
2022/04/14 00:21:18;;;;;;;1.77;1.40;;;;;;;;;;5125637;27;20452;-71
2022/04/14 00:23:47;;;;;;;1.30;1.13;;;;;;;;;;5132924;27;20447;-72
2022/04/14 00:26:14;;;;;;;2.80;1.47;;;;;;;;;;5130447;27;20516;-71
2022/04/14 00:28:41;;;;;;;2.83;1.50;;;;;;;;;;5128390;27;20475;-71
2022/04/14 00:31:08;;;;;;;3.70;1.90;;;;;;;;;;5126708;27;20447;-71
2022/04/14 00:33:35;;;;;;;1.73;1.30;;;;;;;;;;5126952;27;20436;-71
2022/04/14 00:36:02;;;;;;;1.50;1.40;;;;;;;;;;5125245;27;20987;-71
2022/04/14 00:38:30;;;;;;;1.63;1.40;;;;;;;;;;5119503;27;20559;-70
2022/04/14 00:40:58;;;;;;;1.80;1.47;;;;;;;;;;5118284;27;20558;-71
2022/04/14 00:43:32;;;;;;;2.50;1.50;;;;;;;;;;5130704;27;20462;-71
2022/04/14 00:46:00;;;;;;;4.70;2.07;;;;;;;;;;5129954;27;20461;-71
2022/04/14 00:48:27;;;;;;;1.50;1.40;;;;;;;;;;5132744;27;20442;-71
2022/04/14 00:50:54;;;;;;;1.30;1.20;;;;;;;;;;5123845;27;20476;-71
2022/04/14 00:53:22;;;;;;;1.90;1.80;;;;;;;;;;5125887;27;20950;-71
2022/04/14 00:55:49;;;;;;;2.70;1.30;;;;;;;;;;5127464;27;20474;-71
2022/04/14 00:58:18;;;;;;;2.40;1.53;;;;;;;;;;5132984;27;20525;-71
2022/04/14 01:00:45;;;;;;;1.87;1.50;;;;;;;;;;5124058;27;20474;-71
2022/04/14 01:03:12;;;;;;;2.40;1.40;;;;;;;;;;5130280;27;20446;-71
2022/04/14 01:05:40;;;;;;;2.03;1.63;;;;;;;;;;5114180;27;20538;-71
2022/04/14 01:08:08;;;;;;;2.33;2.13;;;;;;;;;;5132908;27;20454;-70
2022/04/14 01:10:35;;;;;;;2.20;2.00;;;;;;;;;;5130815;27;20443;-71
2022/04/14 01:13:03;;;;;;;1.87;1.60;;;;;;;;;;5128032;27;20448;-71
2022/04/14 01:15:31;;;;;;;1.50;1.40;;;;;;;;;;5131338;27;20457;-71
2022/04/14 01:17:59;;;;;;;1.97;1.60;;;;;;;;;;5133182;27;20449;-71
2022/04/14 01:20:26;;;;;;;3.10;2.30;;;;;;;;;;5118976;27;20538;-71
2022/04/14 01:22:57;;;;;;;1.73;1.43;;;;;;;;;;5122334;27;20445;-71
2022/04/14 01:25:26;;;;;;;2.00;1.80;;;;;;;;;;5116871;27;20537;-71
2022/04/14 01:27:53;;;;;;;1.97;1.53;;;;;;;;;;5122421;27;20445;-71
2022/04/14 01:30:21;;;;;;;2.13;1.53;;;;;;;;;;5120953;27;20455;-71
2022/04/14 01:32:48;;;;;;;3.10;2.17;;;;;;;;;;5119132;27;20448;-71
2022/04/14 01:35:16;;;;;;;2.20;1.57;;;;;;;;;;5124015;27;20849;-71
2022/04/14 01:37:43;;;;;;;3.60;1.83;;;;;;;;;;5120632;27;20483;-72
2022/04/14 01:40:10;;;;;;;1.93;1.43;;;;;;;;;;5129047;27;20828;-71
2022/04/14 01:42:39;;;;;;;1.73;1.43;;;;;;;;;;5127939;27;20449;-71
2022/04/14 01:45:06;;;;;;;6.57;2.20;;;;;;;;;;5125500;27;20482;-71
2022/04/14 01:47:33;;;;;;;2.10;1.77;;;;;;;;;;5115500;27;20933;-71
2022/04/14 01:50:01;;;;;;;2.40;2.00;;;;;;;;;;5127194;27;20451;-71
2022/04/14 01:52:28;;;;;;;1.57;1.47;;;;;;;;;;5129344;27;20446;-71
2022/04/14 01:54:55;;;;;;;1.83;1.53;;;;;;;;;;5131579;27;21220;-70
2022/04/14 01:57:22;;;;;;;1.50;1.40;;;;;;;;;;5119156;27;20485;-71
2022/04/14 01:59:51;;;;;;;3.43;2.07;;;;;;;;;;5131112;27;20473;-71
2022/04/14 02:02:18;;;;;;;1.40;1.20;;;;;;;;;;5125297;27;20812;-71
2022/04/14 02:04:45;;;;;;;1.87;1.77;;;;;;;;;;5112968;27;20445;-71
2022/04/14 02:07:13;;;;;;;1.87;1.63;;;;;;;;;;5130204;27;20542;-71
2022/04/14 02:09:40;;;;;;;1.70;1.37;;;;;;;;;;5123626;27;20914;-71
2022/04/14 02:12:07;;;;;;;3.00;1.50;;;;;;;;;;5114477;27;20483;-70
2022/04/14 02:14:35;;;;;;;1.53;1.30;;;;;;;;;;5131774;27;20526;-71
2022/04/14 02:17:03;;;;;;;2.13;1.77;;;;;;;;;;5131732;27;20583;-71
2022/04/14 02:19:31;;;;;;;2.60;1.83;;;;;;;;;;5127743;28;20435;-71
2022/04/14 02:21:58;;;;;;;2.83;1.77;;;;;;;;;;5123277;28;20443;-70
2022/04/14 02:24:25;;;;;;;2.27;1.53;;;;;;;;;;5131398;27;20446;-70
2022/04/14 02:26:53;;;;;;;3.13;1.70;;;;;;;;;;5117856;27;20924;-70
2022/04/14 02:29:20;;;;;;;2.40;1.47;;;;;;;;;;5131626;27;20529;-70
2022/04/14 02:31:47;;;;;;;2.87;1.90;;;;;;;;;;5130468;27;20453;-70
2022/04/14 02:34:15;;;;;;;4.17;1.80;;;;;;;;;;5129035;27;20663;-70
2022/04/14 02:36:43;;;;;;;3.83;2.20;;;;;;;;;;5129368;28;20983;-71
2022/04/14 02:39:10;;;;;;;1.40;1.27;;;;;;;;;;5126764;28;20538;-71
2022/04/14 02:41:37;;;;;;;2.10;1.90;;;;;;;;;;5125788;28;20882;-70
2022/04/14 02:44:05;;;;;;;3.20;2.30;;;;;;;;;;5117636;28;20629;-70
2022/04/14 02:46:32;;;;;;;2.57;1.53;;;;;;;;;;5127849;28;20522;-71
2022/04/14 02:48:59;;;;;;;1.40;1.27;;;;;;;;;;5127714;27;20457;-71
2022/04/14 02:51:28;;;;;;;1.80;1.60;;;;;;;;;;5119242;28;20443;-71
2022/04/14 02:53:55;;;;;;;3.63;2.20;;;;;;;;;;5108982;28;21002;-71
2022/04/14 02:56:22;;;;;;;1.87;1.33;;;;;;;;;;5122673;28;20482;-70
2022/04/14 02:58:49;;;;;;;3.73;2.00;;;;;;;;;;5127021;27;20442;-71
2022/04/14 03:01:17;;;;;;;2.50;1.40;;;;;;;;;;5126254;27;20529;-71
2022/04/14 03:03:44;;;;;;;2.80;1.90;;;;;;;;;;5122620;27;20530;-71
2022/04/14 03:06:11;;;;;;;1.83;1.50;;;;;;;;;;5122113;28;20958;-71
2022/04/14 03:08:39;;;;;;;1.53;1.37;;;;;;;;;;5131280;27;20508;-71
2022/04/14 03:11:07;;;;;;;2.20;2.00;;;;;;;;;;5128883;28;20451;-72
2022/04/14 03:13:34;;;;;;;2.73;1.83;;;;;;;;;;5123079;28;20883;-71
2022/04/14 03:16:01;;;;;;;2.33;1.97;;;;;;;;;;5120140;28;20440;-72
2022/04/14 03:18:29;;;;;;;2.00;1.70;;;;;;;;;;5123385;28;20469;-71
2022/04/14 03:20:56;;;;;;;1.80;1.70;;;;;;;;;;5117688;27;21037;-70
2022/04/14 03:23:24;;;;;;;2.97;1.97;;;;;;;;;;5130501;28;20443;-71
2022/04/14 03:25:53;;;;;;;2.13;1.60;;;;;;;;;;5120183;27;20457;-71
2022/04/14 03:28:20;;;;;;;4.53;2.27;;;;;;;;;;5128073;27;20459;-72
2022/04/14 03:30:47;;;;;;;2.07;1.87;;;;;;;;;;5132200;27;20943;-72
2022/04/14 03:33:14;;;;;;;1.60;1.47;;;;;;;;;;5126958;27;20534;-72
2022/04/14 03:35:41;;;;;;;1.93;1.60;;;;;;;;;;5127081;27;20446;-70
2022/04/14 03:38:08;;;;;;;2.20;1.77;;;;;;;;;;5110831;27;20585;-71
2022/04/14 03:40:35;;;;;;;2.53;1.90;;;;;;;;;;5127503;27;20505;-70
2022/04/14 03:43:04;;;;;;;2.70;2.03;;;;;;;;;;5129765;27;20446;-71
2022/04/14 03:45:31;;;;;;;2.27;1.60;;;;;;;;;;5126262;27;20444;-71
2022/04/14 03:48:00;;;;;;;3.97;2.97;;;;;;;;;;5129011;27;20482;-71
2022/04/14 03:50:27;;;;;;;3.43;1.47;;;;;;;;;;5125324;27;20451;-71
2022/04/14 03:52:54;;;;;;;3.30;2.23;;;;;;;;;;5133768;27;20961;-71
2022/04/14 03:55:21;;;;;;;3.50;1.63;;;;;;;;;;5123697;27;21015;-71
2022/04/14 03:57:48;;;;;;;3.90;2.43;;;;;;;;;;5129923;27;20482;-70
2022/04/14 04:00:17;;;;;;;2.00;1.50;;;;;;;;;;5115427;27;20804;-70
2022/04/14 04:02:44;;;;;;;2.20;2.00;;;;;;;;;;5119739;27;20804;-71
2022/04/14 04:05:11;;;;;;;3.43;2.30;;;;;;;;;;5123314;27;20447;-70
2022/04/14 04:07:39;;;;;;;4.07;1.90;;;;;;;;;;5129152;27;20487;-71
2022/04/14 04:10:06;;;;;;;3.13;2.03;;;;;;;;;;5132015;27;20534;-70
2022/04/14 04:12:33;;;;;;;3.00;1.90;;;;;;;;;;5131787;27;20950;-71
2022/04/14 04:15:00;;;;;;;3.37;2.03;;;;;;;;;;5133595;27;20526;-71
2022/04/14 04:17:29;;;;;;;2.13;1.93;;;;;;;;;;5127782;27;20480;-71
2022/04/14 04:19:56;;;;;;;3.20;1.90;;;;;;;;;;5115164;27;20484;-70
2022/04/14 04:22:23;;;;;;;2.03;1.93;;;;;;;;;;5130944;27;20454;-71
2022/04/14 04:24:50;;;;;;;2.47;2.27;;;;;;;;;;5133162;27;20451;-71
2022/04/14 04:27:18;;;;;;;3.20;2.40;;;;;;;;;;5118903;27;20541;-71
2022/04/14 04:29:45;;;;;;;3.00;2.00;;;;;;;;;;5119721;27;20537;-71
2022/04/14 04:32:12;;;;;;;3.10;2.13;;;;;;;;;;5125270;27;20450;-71
2022/04/14 04:34:40;;;;;;;3.10;2.60;;;;;;;;;;5126708;27;20858;-70
2022/04/14 04:37:08;;;;;;;2.00;1.70;;;;;;;;;;5125079;27;20530;-72
2022/04/14 04:39:35;;;;;;;2.53;2.17;;;;;;;;;;5118832;27;20466;-70
2022/04/14 04:42:02;;;;;;;3.40;2.20;;;;;;;;;;5133197;27;20435;-70
2022/04/14 04:44:29;;;;;;;4.63;3.20;;;;;;;;;;5127592;27;20880;-70
2022/04/14 04:46:56;;;;;;;4.07;2.70;;;;;;;;;;5128694;27;20455;-70
2022/04/14 04:49:23;;;;;;;2.53;2.10;;;;;;;;;;5117186;27;20531;-70
2022/04/14 04:51:52;;;;;;;3.93;2.83;;;;;;;;;;5126944;27;21012;-70
2022/04/14 04:54:19;;;;;;;3.10;2.40;;;;;;;;;;5126992;27;20505;-70
2022/04/14 04:56:46;;;;;;;2.90;2.60;;;;;;;;;;5121416;27;20474;-70
2022/04/14 04:59:13;;;;;;;6.10;2.83;;;;;;;;;;5132676;27;20564;-70
2022/04/14 05:01:41;;;;;;;3.13;2.73;;;;;;;;;;5131665;27;20447;-70
2022/04/14 05:04:09;;;;;;;4.30;2.90;;;;;;;;;;5128299;27;20502;-70
2022/04/14 05:06:36;;;;;;;3.60;3.30;;;;;;;;;;5132764;27;20449;-70
2022/04/14 05:09:04;;;;;;;3.47;2.90;;;;;;;;;;5133327;27;20949;-70
2022/04/14 05:11:32;;;;;;;3.53;3.00;;;;;;;;;;5122205;27;20515;-71
2022/04/14 05:13:59;;;;;;;3.27;2.90;;;;;;;;;;5132109;27;20439;-71
2022/04/14 05:16:26;;;;;;;4.40;3.20;;;;;;;;;;5118922;27;20452;-71
2022/04/14 05:18:53;;;;;;;5.07;3.60;;;;;;;;;;5129483;27;20470;-70
2022/04/14 05:21:20;;;;;;;8.03;3.97;;;;;;;;;;5131897;27;20442;-70
2022/04/14 05:23:48;;;;;;;8.50;5.33;;;;;;;;;;5125125;27;20441;-70
2022/04/14 05:26:17;;;;;;;9.20;4.17;;;;;;;;;;5132017;27;20472;-70
2022/04/14 05:28:44;;;;;;;5.80;3.80;;;;;;;;;;5128086;27;20439;-70
2022/04/14 05:31:11;;;;;;;8.23;4.93;;;;;;;;;;5111084;28;20493;-70
2022/04/14 05:33:39;;;;;;;9.03;5.30;;;;;;;;;;5118932;27;20465;-70
2022/04/14 05:36:06;;;;;;;6.10;4.63;;;;;;;;;;5131283;27;20451;-71
2022/04/14 05:38:34;;;;;;;7.13;4.53;;;;;;;;;;5123183;27;21038;-71
2022/04/14 05:41:01;;;;;;;8.80;4.27;;;;;;;;;;5110484;27;20471;-72
2022/04/14 05:43:30;;;;;;;7.07;4.93;;;;;;;;;;5119676;27;21259;-74
2022/04/14 05:45:59;;;;;;;6.77;4.43;;;;;;;;;;5114993;27;20440;-73
2022/04/14 05:48:26;;;;;;;6.30;4.43;;;;;;;;;;5113487;27;20448;-74
2022/04/14 05:50:55;;;;;;;5.27;3.77;;;;;;;;;;5113244;27;20543;-73
2022/04/14 05:53:25;;;;;;;6.43;4.77;;;;;;;;;;5122468;27;20450;-72
2022/04/14 05:55:53;;;;;;;5.33;4.60;;;;;;;;;;5120047;27;20854;-71
2022/04/14 05:58:20;;;;;;;8.87;4.70;;;;;;;;;;5124031;27;20480;-71
2022/04/14 06:00:48;;;;;;;8.50;5.83;;;;;;;;;;5125803;27;20443;-73
2022/04/14 06:03:16;;;;;;;7.53;4.43;;;;;;;;;;5114458;27;20443;-72
2022/04/14 06:05:43;;;;;;;5.83;4.70;;;;;;;;;;5126579;27;21006;-71
2022/04/14 06:08:10;;;;;;;6.90;5.07;;;;;;;;;;5131472;27;20509;-72
2022/04/14 06:10:38;;;;;;;5.80;5.23;;;;;;;;;;5124849;27;20908;-72
2022/04/14 06:13:05;;;;;;;7.97;6.57;;;;;;;;;;5131672;27;20945;-72
2022/04/14 06:15:33;;;;;;;9.17;5.87;;;;;;;;;;5131843;27;20519;-71
2022/04/14 06:18:01;;;;;;;8.00;5.60;;;;;;;;;;5131792;27;20518;-72
2022/04/14 06:20:28;;;;;;;6.43;5.37;;;;;;;;;;5120568;27;20451;-72
2022/04/14 06:22:58;;;;;;;8.23;5.80;;;;;;;;;;5127455;27;20436;-73
2022/04/14 06:25:26;;;;;;;11.70;7.07;;;;;;;;;;5115775;27;20449;-73
2022/04/14 06:27:56;;;;;;;8.47;5.97;;;;;;;;;;5114866;27;20451;-72
2022/04/14 06:30:23;;;;;;;8.27;7.37;;;;;;;;;;5123781;28;20923;-72
2022/04/14 06:32:56;;;;;;;12.77;8.60;;;;;;;;;;5127779;27;20495;-70
2022/04/14 06:35:25;;;;;;;10.53;6.63;;;;;;;;;;5123339;28;20444;-70
2022/04/14 06:37:53;;;;;;;11.53;7.70;;;;;;;;;;5119251;28;20918;-70
2022/04/14 06:40:21;;;;;;;16.00;9.23;;;;;;;;;;5125269;27;20481;-72
2022/04/14 06:42:48;;;;;;;11.80;8.90;;;;;;;;;;5122500;28;20473;-72
2022/04/14 06:45:15;;;;;;;10.50;8.53;;;;;;;;;;5127778;28;20939;-72
2022/04/14 06:47:42;;;;;;;15.50;9.70;;;;;;;;;;5111240;28;20436;-72
2022/04/14 06:50:10;;;;;;;13.73;8.97;;;26.40;1.00;;;;;;5130859;27;20449;-72
2022/04/14 06:52:39;;;;;;;14.30;10.33;;;;;;;;;;5125437;27;20442;-72
2022/04/14 06:55:07;;;;;;;12.40;8.07;;;;;;;;;;5125145;28;20438;-72
2022/04/14 06:57:34;;;;;;;13.30;9.23;;;;;;;;;;5131150;27;20568;-72
2022/04/14 07:00:01;;;;;;;14.50;8.17;;;;;;;;;;5121426;27;20432;-72
2022/04/14 07:02:31;;;;;;;12.07;8.00;;;;;;;;;;5129935;27;20479;-73
2022/04/14 07:04:59;;;;;;;11.40;7.80;;;;;;;;;;5127306;27;20450;-73
2022/04/14 07:07:26;;;;;;;13.10;8.07;;;;;;;;;;5128303;27;20801;-71
2022/04/14 07:09:54;;;;;;;9.13;7.70;;;;;;;;;;5135650;27;20529;-71
2022/04/14 07:12:21;;;;;;;12.60;10.03;;;;;;;;;;5125645;27;20451;-70
2022/04/14 07:14:49;;;;;;;11.83;8.03;;;;;;;;;;5128819;27;20463;-72
2022/04/14 07:17:20;;;;;;;10.03;7.60;;;;;;;;;;5130550;27;20512;-72
2022/04/14 07:19:47;;;;;;;12.07;8.13;;;;;;;;;;5135456;27;20807;-71
2022/04/14 07:22:17;;;;;;;9.77;7.60;;;;;;;;;;5132061;27;20526;-71
2022/04/14 07:24:44;;;;;;;13.20;8.70;;;;;;;;;;5126182;27;20446;-73
2022/04/14 07:27:13;;;;;;;10.57;8.17;;;;;;;;;;5134202;27;20438;-73
2022/04/14 07:29:40;;;;;;;10.10;7.80;;;;;;;;;;5125783;27;20474;-74
2022/04/14 07:32:07;;;;;;;10.13;7.90;;;;;;;;;;5114531;27;20534;-73
2022/04/14 07:34:35;;;;;;;13.83;9.10;;;;;;;;;;5120371;27;20463;-72
2022/04/14 07:37:02;;;;;;;14.80;7.47;;;;;;;;;;5113280;28;20463;-70
2022/04/14 07:39:29;;;;;;;10.00;7.10;;;14.30;67.00;;;;;;5113236;28;21032;-72
2022/04/14 07:41:55;;;;;;;10.53;7.10;;;15.70;1.00;;;;;;5114306;28;20508;-72
2022/04/14 07:44:24;;;;;;;11.33;7.13;;;15.80;1.00;;;;;;5112443;28;20452;-72
2022/04/14 07:46:51;;;;;;;10.13;7.80;;;15.80;99.90;;;;;;5113676;28;20479;-72
2022/04/14 07:49:17;;;;;;;16.70;8.40;;;15.80;99.90;;;;;;5116102;27;20440;-72
2022/04/14 07:51:44;;;;;;;9.13;7.37;;;15.80;99.90;;;;;;5114032;28;20447;-72
2022/04/14 07:54:11;;;;;;;12.00;7.40;;;15.80;99.90;;;;;;5113280;28;20523;-72
2022/04/14 07:56:38;;;;;;;9.67;6.70;;;16.00;99.90;;;;;;5115368;27;20472;-72
2022/04/14 07:59:05;;;;;;;9.17;7.23;;;;;;;;;;5112221;28;20475;-72
2022/04/14 08:01:34;;;;;;;10.80;7.10;;;;;;;;;;5111541;27;20443;-71
2022/04/14 08:04:01;;;;;;;10.90;7.67;;;;;;;;;;5113997;27;20528;-72
2022/04/14 08:06:31;;;;;;;8.03;6.47;;;;;;;;;;5112833;28;20960;-71
2022/04/14 08:08:58;;;;;;;9.20;7.30;;;16.10;1.00;;;;;;5112195;27;20936;-71
2022/04/14 08:11:25;;;;;;;10.97;7.70;;;16.40;99.90;;;;;;5111708;27;20788;-72
2022/04/14 08:13:52;;;;;;;9.57;7.57;;;16.40;99.90;;;;;;5110478;27;20448;-71
2022/04/14 08:16:18;;;;;;;9.50;7.70;;;16.50;99.90;;;;;;5111462;27;20479;-72
2022/04/14 08:18:47;;;;;;;10.10;7.93;;;16.60;99.90;;;;;;5111031;27;20472;-72
2022/04/14 08:21:14;;;;;;;8.83;6.87;;;16.70;1.00;;;;;;5119612;27;20438;-73
2022/04/14 08:23:41;;;;;;;9.30;6.93;;;16.70;1.00;;;;;;5116629;27;20448;-72
2022/04/14 08:26:12;;;;;;;12.50;7.90;;;16.70;1.00;;;;;;5111443;27;20784;-72
2022/04/14 08:28:41;;;;;;;9.33;6.53;;;16.80;1.00;;;;;;5111152;27;20522;-70
2022/04/14 08:31:09;;;;;;;11.50;7.90;;;16.70;1.00;;;;;;5120829;27;20446;-72
2022/04/14 08:33:37;;;;;;;8.30;6.60;;;16.70;1.00;;;;;;5128140;27;20482;-72
2022/04/14 08:36:08;;;;;;;13.80;7.90;;;16.60;1.00;;;;;;5122528;27;20523;-73
2022/04/14 08:38:35;;;;;;;15.80;8.03;;;16.90;1.00;;;;;;5111312;28;20956;-72
2022/04/14 08:41:08;;;;;;;7.70;6.60;;;16.90;1.00;;;;;;5113327;28;20819;-72
2022/04/14 08:43:38;;;;;;;9.53;7.40;;;16.90;1.00;;;;;;5114998;27;20484;-76
2022/04/14 08:46:06;;;;;;;9.70;6.90;;;16.90;1.00;;;;;;5121082;27;20479;-72
2022/04/14 08:48:36;;;;;;;9.37;7.33;;;17.00;1.00;;;;;;5118573;27;20516;-71
2022/04/14 08:51:07;;;;;;;8.60;7.13;;;17.10;1.00;;;;;;5119650;27;20485;-71
2022/04/14 08:53:36;;;;;;;8.93;7.07;;;17.20;99.90;;;;;;5121650;27;20933;-72
2022/04/14 08:56:07;;;;;;;9.83;7.63;;;17.20;99.90;;;;;;5114300;27;20452;-71
2022/04/14 08:58:37;;;;;;;11.00;6.60;;;17.10;99.90;;;;;;5112516;28;20503;-73
2022/04/14 09:01:05;;;;;;;10.77;7.17;;;17.30;99.90;;;;;;5112646;28;20492;-72
2022/04/14 09:03:32;;;;;;;8.67;6.20;;;17.30;99.90;;;;;;5112513;27;20451;-72
2022/04/14 09:06:00;;;;;;;12.93;7.07;;;;;;;;;;5112951;27;20493;-72
2022/04/14 09:08:29;;;;;;;10.10;7.33;;;;;;;;;;5108523;28;20451;-69
2022/04/14 09:10:56;;;;;;;6.63;5.97;;;;;;;;;;5112533;28;20468;-69
2022/04/14 09:13:23;;;;;;;10.33;6.93;;;;;;;;;;5112664;27;20439;-72
2022/04/14 09:15:51;;;;;;;8.40;6.33;;;;;;;;;;5111975;28;20455;-72
2022/04/14 09:18:18;;;;;;;11.00;6.87;;;;;;;;;;5111249;28;20836;-72
2022/04/14 09:20:48;;;;;;;8.43;7.07;;;;;;;;;;5112443;28;20439;-72
2022/04/14 09:23:23;;;;;;;9.77;6.80;;;;;;;;;;5114127;27;20439;-71
2022/04/14 09:25:52;;;;;;;9.17;6.50;;;;;;;;;;5107182;28;20511;-72
2022/04/14 09:28:20;;;;;;;6.57;5.97;;;;;;;;;;5110348;28;20440;-72
2022/04/14 09:31:01;;;;;;;9.67;7.00;;;;;;;;;;5113048;27;20804;-73
2022/04/14 09:33:28;;;;;;;9.40;6.53;;;;;;;;;;5109002;28;20514;-72
2022/04/14 09:36:08;;;;;;;8.53;6.23;;;;;;;;;;5122890;27;20496;-73
2022/04/14 09:38:56;;;;;;;9.43;6.50;;;;;;;;;;5118749;27;20482;-73
2022/04/14 09:41:32;;;;;;;9.37;6.23;;;;;;;;;;5131235;27;20471;-72
2022/04/14 09:43:59;;;;;;;8.73;7.00;;;;;;;;;;5130220;27;20505;-72
2022/04/14 09:46:27;;;;;;;9.37;6.60;;;;;;;;;;5115719;27;20446;-72
2022/04/14 09:49:03;;;;;;;9.27;6.40;;;;;;;;;;5112187;27;20448;-72
2022/04/14 09:51:30;;;;;;;9.33;7.10;;;;;;;;;;5119217;27;20439;-72
2022/04/14 09:54:03;;;;;;;8.77;6.50;;;;;;;;;;5102942;27;20948;-72
2022/04/14 09:56:41;;;;;;;6.97;6.10;;;;;;;;;;5101350;27;20510;-72
2022/04/14 09:59:09;;;;;;;7.57;5.90;;;;;;;;;;5097991;27;20465;-71
2022/04/14 10:01:36;;;;;;;10.77;7.73;;;;;;;;;;5108932;27;20448;-71
2022/04/14 10:04:03;;;;;;;7.60;6.40;;;;;;;;;;5117948;27;20462;-71
2022/04/14 10:06:30;;;;;;;8.50;6.30;;;;;;;;;;5128885;27;20879;-72
2022/04/14 10:08:58;;;;;;;7.73;6.10;;;;;;;;;;5121376;27;20472;-71
2022/04/14 10:11:26;;;;;;;6.70;5.50;;;;;;;;;;5131066;27;20910;-70
2022/04/14 10:13:54;;;;;;;9.97;6.70;;;;;;;;;;5132006;27;20449;-70
2022/04/14 10:16:25;;;;;;;8.37;6.80;;;;;;;;;;5131560;27;20538;-70
2022/04/14 10:18:53;;;;;;;8.90;6.37;;;;;;;;;;5131689;27;20494;-72
2022/04/14 10:21:21;;;;;;;9.87;7.37;;;;;;;;;;5130795;27;20534;-70
2022/04/14 10:23:49;;;;;;;10.10;6.83;;;;;;;;;;5131882;27;20526;-71
2022/04/14 10:26:16;;;;;;;7.13;6.00;;;;;;;;;;5131451;27;20447;-71
2022/04/14 10:28:45;;;;;;;8.20;6.03;;;;;;;;;;5131573;27;20538;-71
2022/04/14 10:31:14;;;;;;;13.47;7.40;;;;;;;;;;5130674;28;20446;-71
2022/04/14 10:33:41;;;;;;;8.13;6.10;;;;;;;;;;5130957;27;20441;-71
2022/04/14 10:36:08;;;;;;;5.87;5.20;;;;;;;;;;5131767;27;20961;-70
2022/04/14 10:38:36;;;;;;;8.47;6.43;;;;;;;;;;5122380;27;20481;-71
2022/04/14 10:41:05;;;;;;;7.37;6.40;;;;;;;;;;5135924;27;20832;-70
2022/04/14 10:43:34;;;;;;;6.57;5.43;;;;;;;;;;5135746;27;20446;-71
2022/04/14 10:46:02;;;;;;;9.10;6.90;;;;;;;;;;5135891;27;20450;-71
2022/04/14 10:48:31;;;;;;;7.93;6.60;;;;;;;;;;5135466;27;20521;-71
2022/04/14 10:51:17;;;;;;;8.17;5.87;;;;;;;;;;5135147;27;20870;-71
2022/04/14 10:53:52;;;;;;;6.33;5.73;;;;;;;;;;5135594;27;20451;-70
2022/04/14 10:56:37;;;;;;;7.77;5.97;;;;;;;;;;5135267;27;20446;-70
2022/04/14 10:59:05;;;;;;;8.80;5.40;;;;;;;;;;5125745;27;20488;-70
2022/04/14 11:01:50;;;;;;;7.50;6.20;;;;;;;;;;5135656;27;20914;-70
2022/04/14 11:04:26;;;;;;;7.23;5.70;;;;;;;;;;5128155;27;20447;-70
2022/04/14 11:06:54;;;;;;;8.67;5.70;;;;;;;;;;5135154;27;20525;-69
2022/04/14 11:09:41;;;;;;;7.60;5.97;;;;;;;;;;5134879;27;20511;-70
2022/04/14 11:12:08;;;;;;;6.70;6.00;;;;;;;;;;5134213;27;20450;-70
2022/04/14 11:14:36;;;;;;;11.17;7.13;;;;;;;;;;5135520;27;20457;-70
2022/04/14 11:17:03;;;;;;;9.33;6.27;;;;;;;;;;5128655;27;20537;-71
2022/04/14 11:19:32;;;;;;;7.87;5.90;;;;;;;;;;5117354;27;20481;-71
2022/04/14 11:22:01;;;;;;;7.77;6.20;;;;;;;;;;5129804;27;20458;-71
2022/04/14 11:24:34;;;;;;;8.90;6.90;;;;;;;;;;5126745;27;20891;-72
2022/04/14 11:27:09;;;;;;;8.13;6.97;;;;;;;;;;5131341;27;20450;-71
2022/04/14 11:29:37;;;;;;;9.07;7.30;;;;;;;;;;5123232;27;20446;-72
2022/04/14 11:32:05;;;;;;;7.70;6.27;;;;;;;;;;5121846;27;20450;-72
2022/04/14 11:34:34;;;;;;;6.83;5.33;;;;;;;;;;5127015;27;20950;-71
2022/04/14 11:37:01;;;;;;;9.27;6.20;;;;;;;;;;5113760;27;20958;-72
2022/04/14 11:39:29;;;;;;;7.70;6.90;;;;;;;;;;5117446;27;20562;-72
2022/04/14 11:41:58;;;;;;;6.97;6.30;;;;;;;;;;5130678;27;20439;-71
2022/04/14 11:44:28;;;;;;;11.13;6.67;;;;;;;;;;5130720;27;20831;-72
2022/04/14 11:46:56;;;;;;;6.23;5.63;;;;;;;;;;5119442;27;20456;-72
2022/04/14 11:49:24;;;;;;;7.90;7.10;;;;;;;;;;5107152;27;20457;-72
2022/04/14 11:51:53;;;;;;;7.43;6.00;;;;;;;;;;5122796;27;20469;-71
2022/04/14 11:54:22;;;;;;;7.93;6.00;;;;;;;;;;5131901;27;20479;-71
2022/04/14 11:56:53;;;;;;;11.77;6.83;;;;;;;;;;5125035;27;20496;-71
2022/04/14 11:59:21;;;;;;;8.23;6.20;;;;;;;;;;5114644;27;20483;-69
2022/04/14 12:01:50;;;;;;;6.20;5.47;;;;;;;;;;5119032;27;20456;-70
2022/04/14 12:04:17;;;;;;;10.70;5.70;;;;;;;;;;5118912;27;20959;-70
2022/04/14 12:06:55;;;;;;;8.23;5.63;;;;;;;;;;5128097;27;20443;-70
2022/04/14 12:09:24;;;;;;;7.70;6.60;;;;;;;;;;5126113;27;20445;-70
2022/04/14 12:11:51;;;;;;;11.00;6.53;;;;;;;;;;5122879;27;20534;-69
2022/04/14 12:14:18;;;;;;;6.60;5.20;;;;;;;;;;5131036;27;21026;-69
2022/04/14 12:16:49;;;;;;;10.67;7.20;;;;;;;;;;5131960;27;20530;-70
2022/04/14 12:19:16;;;;;;;7.30;5.20;;;;;;;;;;5120542;27;20485;-69
2022/04/14 12:21:44;;;;;;;7.80;6.17;;;;;;;;;;5130975;27;20548;-69
2022/04/14 12:24:12;;;;;;;7.23;6.17;;;;;;;;;;5130448;27;20503;-71
2022/04/14 12:26:40;;;;;;;8.07;6.10;;;;;;;;;;5127020;27;20454;-71
2022/04/14 12:29:10;;;;;;;12.20;7.80;;;;;;;;;;5104309;27;20538;-68
2022/04/14 12:31:37;;;;;;;8.37;5.93;;;;;;;;;;5124422;27;20661;-70
2022/04/14 12:34:05;;;;;;;7.50;6.50;;;;;;;;;;5130033;27;20461;-71
2022/04/14 12:36:36;;;;;;;8.90;6.90;;;;;;;;;;5124903;27;20486;-71
2022/04/14 12:39:05;;;;;;;7.00;5.80;;;;;;;;;;5120115;27;20542;-72
2022/04/14 12:41:38;;;;;;;9.37;5.80;;;;;;;;;;5130364;27;20479;-71
2022/04/14 12:44:06;;;;;;;12.40;6.73;;;;;;;;;;5130776;27;20462;-71
2022/04/14 12:46:37;;;;;;;8.33;5.93;;;;;;;;;;5127947;27;20443;-72
2022/04/14 12:49:06;;;;;;;7.97;6.87;;;;;;;;;;5123409;27;20442;-72
2022/04/14 12:51:34;;;;;;;7.97;6.37;;;;;;;;;;5128952;27;20507;-72
2022/04/14 12:54:01;;;;;;;13.40;7.20;;;;;;;;;;5123749;27;20896;-72
2022/04/14 12:56:29;;;;;;;5.60;4.80;;;;;;;;;;5126595;27;20451;-70
2022/04/14 12:59:14;;;;;;;7.87;6.10;;;;;;;;;;5121085;27;20519;-70
2022/04/14 13:01:49;;;;;;;6.90;5.83;;;;;;;;;;5106359;27;20475;-69
2022/04/14 13:04:16;;;;;;;8.10;5.90;;;;;;;;;;5124644;27;20528;-69
2022/04/14 13:06:56;;;;;;;7.33;6.57;;;;;;;;;;5121007;27;20458;-70
2022/04/14 13:09:24;;;;;;;7.90;6.50;;;;;;;;;;5121854;27;20872;-70
2022/04/14 13:11:51;;;;;;;8.00;7.20;;;;;;;;;;5121528;27;20449;-70
2022/04/14 13:14:23;;;;;;;8.30;6.90;;;;;;;;;;5129123;27;20485;-69
2022/04/14 13:16:51;;;;;;;8.60;6.43;;;;;;;;;;5121103;27;20444;-70
2022/04/14 13:19:18;;;;;;;8.77;7.47;;;;;;;;;;5123562;27;20764;-69
2022/04/14 13:21:46;;;;;;;8.60;7.23;;;;;;;;;;5130282;27;20446;-69
2022/04/14 13:24:13;;;;;;;7.47;6.67;;;;;;;;;;5128948;27;20532;-69
2022/04/14 13:26:41;;;;;;;10.80;7.93;;;;;;;;;;5123417;27;20451;-70
2022/04/14 13:29:10;;;;;;;7.03;6.00;;;;;;;;;;5118596;27;20856;-70
2022/04/14 13:31:38;;;;;;;8.10;7.27;;;;;;;;;;5124123;27;20446;-69
2022/04/14 13:34:06;;;;;;;7.37;6.67;;;;;;;;;;5128990;27;20453;-69
2022/04/14 13:36:33;;;;;;;8.00;7.20;;;;;;;;;;5120932;27;20444;-69
2022/04/14 13:39:00;;;;;;;7.70;6.63;;;;;;;;;;5100958;27;20460;-69
2022/04/14 13:41:27;;;;;;;6.53;5.87;;;;;;;;;;5117212;27;20786;-69
2022/04/14 13:43:54;;;;;;;8.40;6.37;;;;;;;;;;5122422;27;20999;-69
2022/04/14 13:46:22;;;;;;;6.80;5.60;;;;;;;;;;5127306;27;20435;-69
2022/04/14 13:48:50;;;;;;;6.80;5.77;;;;;;;;;;5110068;27;20496;-69
2022/04/14 13:51:18;;;;;;;6.97;6.20;;;;;;;;;;5112074;27;20830;-69
2022/04/14 13:53:45;;;;;;;10.70;7.63;;;;;;;;;;5110116;27;20452;-70
2022/04/14 13:56:12;;;;;;;7.67;6.87;;;;;;;;;;5097195;27;21010;-70
2022/04/14 13:58:39;;;;;;;8.10;7.40;;;;;;;;;;5114684;27;20439;-70
2022/04/14 14:01:07;;;;;;;7.77;5.90;;;;;;;;;;5116641;27;20482;-71
2022/04/14 14:03:34;;;;;;;7.43;6.50;;;;;;;;;;5118312;27;20971;-69
2022/04/14 14:06:03;;;;;;;7.23;6.43;;;;;;;;;;5123048;27;20819;-71
2022/04/14 14:08:31;;;;;;;9.17;7.23;;;;;;;;;;5127955;27;20454;-71
2022/04/14 14:10:58;;;;;;;10.27;6.90;;;;;;;;;;5116598;27;20478;-72
2022/04/14 14:13:25;;;;;;;8.80;8.00;;;;;;;;;;5118174;27;20898;-70
2022/04/14 14:15:52;;;;;;;8.20;6.13;;;;;;;;;;5125009;27;20520;-70
2022/04/14 14:18:20;;;;;;;9.27;7.53;;;;;;;;;;5117753;27;20535;-70
2022/04/14 14:20:47;;;;;;;8.43;7.20;;;;;;;;;;5112802;27;20474;-70
2022/04/14 14:23:16;;;;;;;8.20;6.67;;;;;;;;;;5116668;27;20440;-71
2022/04/14 14:25:44;;;;;;;8.60;6.77;;;;;;;;;;5127779;27;20530;-71
2022/04/14 14:28:11;;;;;;;7.07;6.37;;;;;;;;;;5127280;27;20445;-70
2022/04/14 14:30:38;;;;;;;8.33;7.00;;;;;;;;;;5123442;28;20455;-72
2022/04/14 14:33:06;;;;;;;7.83;5.90;;;;;;;;;;5106640;28;21293;-70
2022/04/14 14:35:34;;;;;;;7.90;6.47;;;;;;;;;;5106341;28;20480;-68